createdAt,value
2023-05-10T00:00:05.764Z,0
2023-05-10T00:01:09.048Z,0
2023-05-10T00:02:12.660Z,0
2023-05-10T00:03:15.944Z,0
2023-05-10T00:04:19.241Z,0
2023-05-10T00:05:22.568Z,0
2023-05-10T00:06:24.871Z,0
2023-05-10T00:07:28.132Z,0
2023-05-10T00:08:31.443Z,0
2023-05-10T00:09:34.716Z,0
2023-05-10T00:10:38.014Z,0
2023-05-10T00:11:41.314Z,0
2023-05-10T00:12:44.597Z,0
2023-05-10T00:13:47.897Z,0
2023-05-10T00:14:51.199Z,0
2023-05-10T00:15:54.498Z,0
2023-05-10T00:16:57.769Z,0
2023-05-10T00:18:01.082Z,0
2023-05-10T00:19:04.362Z,0
2023-05-10T00:20:06.678Z,0
2023-05-10T00:21:09.944Z,0
2023-05-10T00:22:13.249Z,0
2023-05-10T00:23:16.540Z,0
2023-05-10T00:24:19.836Z,0
2023-05-10T00:25:23.146Z,0
2023-05-10T00:26:26.404Z,0
2023-05-10T00:27:29.705Z,0
2023-05-10T00:28:33.016Z,0
2023-05-10T00:29:36.332Z,0
2023-05-10T00:30:39.580Z,0
2023-05-10T00:31:42.879Z,0
2023-05-10T00:32:46.173Z,0
2023-05-10T00:33:48.500Z,0
2023-05-10T00:34:51.776Z,0
2023-05-10T00:35:55.056Z,0
2023-05-10T00:36:58.351Z,0
2023-05-10T00:38:01.634Z,0
2023-05-10T00:39:04.930Z,0
2023-05-10T00:40:08.207Z,0
2023-05-10T00:41:11.531Z,0
2023-05-10T00:42:14.814Z,0
2023-05-10T00:43:18.103Z,0
2023-05-10T00:44:21.408Z,0
2023-05-10T00:45:24.688Z,0
2023-05-10T00:46:27.981Z,0
2023-05-10T00:47:30.286Z,0
2023-05-10T00:48:33.566Z,0
2023-05-10T00:49:36.861Z,0
2023-05-10T00:50:40.148Z,0
2023-05-10T00:51:43.464Z,0
2023-05-10T00:52:46.760Z,0
2023-05-10T00:53:50.045Z,0
2023-05-10T00:54:53.324Z,0
2023-05-10T00:55:56.631Z,0
2023-05-10T00:56:59.910Z,0
2023-05-10T00:58:03.203Z,0
2023-05-10T00:59:06.501Z,0
2023-05-10T01:00:09.789Z,0
2023-05-10T01:01:12.104Z,0
2023-05-10T01:02:15.384Z,0
2023-05-10T01:03:19.034Z,0
2023-05-10T01:04:22.358Z,0
2023-05-10T01:05:25.625Z,0
2023-05-10T01:06:28.906Z,0
2023-05-10T01:07:31.245Z,0
2023-05-10T01:08:34.503Z,0
2023-05-10T01:09:37.807Z,0
2023-05-10T01:10:41.109Z,0
2023-05-10T01:11:44.537Z,0
2023-05-10T01:12:47.664Z,0
2023-05-10T01:13:50.998Z,0
2023-05-10T01:14:54.289Z,0
2023-05-10T01:15:57.542Z,0
2023-05-10T01:17:00.861Z,0
2023-05-10T01:18:04.143Z,0
2023-05-10T01:19:07.421Z,0
2023-05-10T01:20:10.718Z,0
2023-05-10T01:21:14.034Z,0
2023-05-10T01:22:16.314Z,0
2023-05-10T01:23:19.628Z,0
2023-05-10T01:24:22.917Z,0
2023-05-10T01:25:26.207Z,0
2023-05-10T01:26:29.529Z,0
2023-05-10T01:27:32.785Z,0
2023-05-10T01:28:36.060Z,0
2023-05-10T01:29:39.369Z,0
2023-05-10T01:30:42.660Z,0
2023-05-10T01:31:45.949Z,0
2023-05-10T01:32:49.248Z,0
2023-05-10T01:33:52.551Z,0
2023-05-10T01:34:55.826Z,0
2023-05-10T01:35:58.137Z,0
2023-05-10T01:37:01.410Z,0
2023-05-10T01:38:04.707Z,0
2023-05-10T01:39:08.015Z,0
2023-05-10T01:40:11.290Z,0
2023-05-10T01:41:14.581Z,0
2023-05-10T01:42:17.882Z,0
2023-05-10T01:43:21.175Z,0
2023-05-10T01:44:24.468Z,0
2023-05-10T01:45:27.750Z,0
2023-05-10T01:46:31.039Z,0
2023-05-10T01:47:34.336Z,0
2023-05-10T01:48:37.624Z,0
2023-05-10T01:49:39.945Z,0
2023-05-10T01:50:43.235Z,0
2023-05-10T01:51:46.535Z,0
2023-05-10T01:52:49.840Z,0
2023-05-10T01:53:53.107Z,0
2023-05-10T01:54:56.402Z,0
2023-05-10T01:55:59.757Z,0
2023-05-10T01:57:02.998Z,0
2023-05-10T01:58:06.271Z,0
2023-05-10T01:59:09.565Z,0
2023-05-10T02:00:12.853Z,0
2023-05-10T02:01:16.357Z,0
2023-05-10T02:02:19.654Z,0
2023-05-10T02:03:21.956Z,0
2023-05-10T02:04:25.235Z,0
2023-05-10T02:05:28.532Z,0
2023-05-10T02:06:31.820Z,0
2023-05-10T02:07:35.106Z,0
2023-05-10T02:08:38.428Z,0
2023-05-10T02:09:41.697Z,0
2023-05-10T02:10:44.987Z,0
2023-05-10T02:11:48.308Z,0
2023-05-10T02:12:51.569Z,0
2023-05-10T02:13:54.866Z,0
2023-05-10T02:14:58.161Z,0
2023-05-10T02:16:01.474Z,0
2023-05-10T02:17:03.834Z,0
2023-05-10T02:18:07.067Z,0
2023-05-10T02:19:10.375Z,0
2023-05-10T02:20:13.641Z,0
2023-05-10T02:21:16.960Z,0
2023-05-10T02:22:20.227Z,0
2023-05-10T02:23:23.505Z,0
2023-05-10T02:24:26.807Z,0
2023-05-10T02:25:30.118Z,0
2023-05-10T02:26:33.395Z,0
2023-05-10T02:27:36.692Z,0
2023-05-10T02:28:39.967Z,0
2023-05-10T02:29:43.298Z,0
2023-05-10T02:30:45.579Z,0
2023-05-10T02:31:48.885Z,0
2023-05-10T02:32:52.153Z,0
2023-05-10T02:33:55.482Z,0
2023-05-10T02:34:58.740Z,0
2023-05-10T02:36:02.053Z,0
2023-05-10T02:37:05.352Z,0
2023-05-10T02:38:08.618Z,0
2023-05-10T02:39:11.937Z,0
2023-05-10T02:40:15.221Z,0
2023-05-10T02:41:18.519Z,0
2023-05-10T02:42:21.799Z,0
2023-05-10T02:43:25.080Z,0
2023-05-10T02:44:27.400Z,0
2023-05-10T02:45:30.712Z,0
2023-05-10T02:46:33.963Z,0
2023-05-10T02:47:37.315Z,0
2023-05-10T02:48:40.568Z,0
2023-05-10T02:49:43.889Z,0
2023-05-10T02:50:47.145Z,0
2023-05-10T02:51:50.471Z,0
2023-05-10T02:52:53.743Z,0
2023-05-10T02:53:57.043Z,0
2023-05-10T02:55:00.332Z,0
2023-05-10T02:56:03.619Z,0
2023-05-10T02:57:06.915Z,0
2023-05-10T02:58:09.234Z,0
2023-05-10T02:59:12.533Z,-0.01
2023-05-10T03:00:15.800Z,0
2023-05-10T03:01:19.104Z,0
2023-05-10T03:02:22.396Z,0
2023-05-10T03:03:25.679Z,0
2023-05-10T03:04:28.988Z,0
2023-05-10T03:05:32.277Z,0
2023-05-10T03:06:35.545Z,0
2023-05-10T03:07:38.864Z,0
2023-05-10T03:08:42.164Z,0
2023-05-10T03:09:45.444Z,0
2023-05-10T03:10:48.720Z,0
2023-05-10T03:11:51.037Z,0
2023-05-10T03:12:54.325Z,0
2023-05-10T03:13:57.615Z,0
2023-05-10T03:15:00.917Z,0
2023-05-10T03:16:04.196Z,0
2023-05-10T03:17:07.504Z,0
2023-05-10T03:18:10.796Z,0
2023-05-10T03:19:14.160Z,0
2023-05-10T03:20:17.381Z,0
2023-05-10T03:21:20.667Z,0
2023-05-10T03:22:23.964Z,0
2023-05-10T03:23:27.283Z,0
2023-05-10T03:24:30.546Z,0
2023-05-10T03:25:32.840Z,0
2023-05-10T03:26:36.138Z,0
2023-05-10T03:27:39.435Z,0
2023-05-10T03:28:42.717Z,0
2023-05-10T03:29:46.016Z,0
2023-05-10T03:30:49.314Z,0
2023-05-10T03:31:52.634Z,0
2023-05-10T03:32:55.890Z,0
2023-05-10T03:33:59.208Z,0
2023-05-10T03:35:02.478Z,0
2023-05-10T03:36:05.781Z,0
2023-05-10T03:37:09.072Z,0
2023-05-10T03:38:12.355Z,0
2023-05-10T03:39:14.650Z,0
2023-05-10T03:40:17.951Z,0
2023-05-10T03:41:21.244Z,0
2023-05-10T03:42:24.548Z,0
2023-05-10T03:43:27.835Z,0
2023-05-10T03:44:31.141Z,0
2023-05-10T03:45:34.414Z,0
2023-05-10T03:46:37.698Z,0
2023-05-10T03:47:41.020Z,0
2023-05-10T03:48:44.278Z,0
2023-05-10T03:49:47.565Z,0
2023-05-10T03:50:50.878Z,0
2023-05-10T03:51:54.160Z,0
2023-05-10T03:52:56.463Z,0
2023-05-10T03:53:59.759Z,0
2023-05-10T03:55:03.075Z,0
2023-05-10T03:56:06.339Z,0
2023-05-10T03:57:09.652Z,0
2023-05-10T03:58:12.925Z,0
2023-05-10T03:59:16.227Z,0
2023-05-10T04:00:19.525Z,0
2023-05-10T04:01:22.811Z,0
2023-05-10T04:02:26.096Z,0
2023-05-10T04:03:29.383Z,0
2023-05-10T04:04:32.677Z,0
2023-05-10T04:05:35.993Z,-0.01
2023-05-10T04:06:38.279Z,0
2023-05-10T04:07:41.568Z,0
2023-05-10T04:08:44.857Z,0
2023-05-10T04:09:48.160Z,0
2023-05-10T04:10:51.459Z,0
2023-05-10T04:11:54.743Z,0
2023-05-10T04:12:58.099Z,0
2023-05-10T04:14:01.327Z,0
2023-05-10T04:15:04.625Z,0
2023-05-10T04:16:07.960Z,0
2023-05-10T04:17:11.259Z,0
2023-05-10T04:18:14.501Z,0
2023-05-10T04:19:17.783Z,0
2023-05-10T04:20:20.113Z,0
2023-05-10T04:21:23.378Z,0
2023-05-10T04:22:26.688Z,0
2023-05-10T04:23:29.980Z,0
2023-05-10T04:24:33.272Z,0
2023-05-10T04:25:36.598Z,0
2023-05-10T04:26:39.883Z,-0.01
2023-05-10T04:27:43.154Z,0
2023-05-10T04:28:46.446Z,0
2023-05-10T04:29:49.747Z,0
2023-05-10T04:30:53.021Z,0
2023-05-10T04:31:56.319Z,0
2023-05-10T04:32:59.602Z,0
2023-05-10T04:34:01.916Z,0
2023-05-10T04:35:05.222Z,0
2023-05-10T04:36:08.562Z,0
2023-05-10T04:37:11.813Z,0
2023-05-10T04:38:15.087Z,0
2023-05-10T04:39:17.412Z,0
2023-05-10T04:40:20.686Z,0
2023-05-10T04:41:23.988Z,0
2023-05-10T04:42:27.271Z,0
2023-05-10T04:43:30.618Z,0
2023-05-10T04:44:33.870Z,0
2023-05-10T04:45:37.144Z,0
2023-05-10T04:46:40.469Z,0
2023-05-10T04:47:43.727Z,0
2023-05-10T04:48:47.022Z,0
2023-05-10T04:49:50.307Z,0
2023-05-10T04:50:53.623Z,0
2023-05-10T04:51:56.898Z,0
2023-05-10T04:52:59.238Z,-0.01
2023-05-10T04:54:02.500Z,0
2023-05-10T04:55:05.807Z,0
2023-05-10T04:56:09.099Z,0
2023-05-10T04:57:12.397Z,0
2023-05-10T04:58:15.710Z,0
2023-05-10T04:59:18.952Z,0
2023-05-10T05:00:22.249Z,0
2023-05-10T05:01:25.546Z,0
2023-05-10T05:02:28.833Z,0
2023-05-10T05:03:32.136Z,0
2023-05-10T05:04:35.450Z,-0.01
2023-05-10T05:05:38.711Z,0
2023-05-10T05:06:41.091Z,0
2023-05-10T05:07:44.322Z,0
2023-05-10T05:08:47.611Z,0
2023-05-10T05:09:50.917Z,0
2023-05-10T05:10:54.231Z,0
2023-05-10T05:11:57.527Z,0
2023-05-10T05:13:00.765Z,0
2023-05-10T05:14:04.110Z,0
2023-05-10T05:15:07.352Z,0
2023-05-10T05:16:10.707Z,1
2023-05-10T05:17:13.932Z,1
2023-05-10T05:18:17.675Z,1
2023-05-10T05:19:20.957Z,1
2023-05-10T05:20:23.272Z,1
2023-05-10T05:21:26.562Z,1
2023-05-10T05:22:29.850Z,1
2023-05-10T05:23:33.158Z,1
2023-05-10T05:24:36.438Z,1
2023-05-10T05:25:39.733Z,1
2023-05-10T05:26:43.100Z,1
2023-05-10T05:27:46.442Z,1
2023-05-10T05:28:49.603Z,0
2023-05-10T05:29:52.931Z,0
2023-05-10T05:30:56.216Z,0
2023-05-10T05:31:59.491Z,0
2023-05-10T05:33:02.780Z,0
2023-05-10T05:34:05.096Z,0
2023-05-10T05:35:08.376Z,0
2023-05-10T05:36:11.719Z,0
2023-05-10T05:37:14.964Z,0
2023-05-10T05:38:18.256Z,0
2023-05-10T05:39:21.580Z,0
2023-05-10T05:40:24.894Z,0
2023-05-10T05:41:28.266Z,0
2023-05-10T05:42:31.618Z,0
2023-05-10T05:43:34.915Z,0
2023-05-10T05:44:38.017Z,0
2023-05-10T05:45:41.379Z,0
2023-05-10T05:46:44.701Z,0
2023-05-10T05:47:46.932Z,0
2023-05-10T05:48:50.271Z,0
2023-05-10T05:49:53.577Z,0
2023-05-10T05:50:56.766Z,0
2023-05-10T05:52:00.083Z,0
2023-05-10T05:53:03.375Z,1
2023-05-10T05:54:06.698Z,1
2023-05-10T05:55:09.955Z,1
2023-05-10T05:56:13.319Z,0
2023-05-10T05:57:16.576Z,1
2023-05-10T05:58:19.817Z,1
2023-05-10T05:59:23.147Z,1
2023-05-10T06:00:26.517Z,1
2023-05-10T06:01:28.754Z,1
2023-05-10T06:02:32.184Z,1
2023-05-10T06:03:35.334Z,1
2023-05-10T06:04:39.222Z,1
2023-05-10T06:05:41.883Z,1
2023-05-10T06:06:45.277Z,1
2023-05-10T06:07:48.556Z,1
2023-05-10T06:08:51.763Z,1
2023-05-10T06:09:55.186Z,1
2023-05-10T06:10:58.356Z,1
2023-05-10T06:12:01.816Z,1
2023-05-10T06:13:04.968Z,1
2023-05-10T06:14:08.214Z,1
2023-05-10T06:15:10.509Z,1
2023-05-10T06:16:13.907Z,1
2023-05-10T06:17:17.131Z,1
2023-05-10T06:18:20.406Z,1
2023-05-10T06:19:23.931Z,1
2023-05-10T06:20:27.077Z,1
2023-05-10T06:21:30.368Z,1
2023-05-10T06:22:33.678Z,1
2023-05-10T06:23:36.988Z,1
2023-05-10T06:24:40.186Z,0
2023-05-10T06:25:43.499Z,0
2023-05-10T06:27:50.095Z,0
2023-05-10T06:28:52.384Z,0
2023-05-10T06:29:55.626Z,0
2023-05-10T06:30:58.962Z,0
2023-05-10T06:32:02.209Z,0
2023-05-10T06:33:05.652Z,0
2023-05-10T06:34:08.868Z,0
2023-05-10T06:35:12.154Z,0
2023-05-10T06:36:15.372Z,0
2023-05-10T06:37:18.702Z,1
2023-05-10T06:38:22.043Z,1
2023-05-10T06:39:25.254Z,1
2023-05-10T06:40:28.617Z,1
2023-05-10T06:41:31.860Z,1
2023-05-10T06:42:34.175Z,1
2023-05-10T06:43:37.497Z,1
2023-05-10T06:44:40.806Z,0
2023-05-10T06:45:44.104Z,1
2023-05-10T06:46:47.345Z,-0.01
2023-05-10T06:47:50.697Z,1
2023-05-10T06:48:53.981Z,1
2023-05-10T06:49:57.239Z,1
2023-05-10T06:51:00.576Z,1
2023-05-10T06:52:03.789Z,1
2023-05-10T06:53:07.172Z,1
2023-05-10T06:54:10.371Z,1
2023-05-10T06:55:13.709Z,1
2023-05-10T06:56:16.034Z,1
2023-05-10T06:57:19.272Z,1
2023-05-10T06:58:22.549Z,1
2023-05-10T06:59:25.912Z,0
2023-05-10T07:00:29.194Z,0
2023-05-10T07:01:32.557Z,0
2023-05-10T07:02:35.859Z,1
2023-05-10T07:03:39.075Z,1
2023-05-10T07:04:42.302Z,1
2023-05-10T07:05:45.771Z,0
2023-05-10T07:06:48.971Z,1
2023-05-10T07:07:52.287Z,9
2023-05-10T07:08:55.555Z,9
2023-05-10T07:09:57.842Z,10
2023-05-10T07:11:01.170Z,9
2023-05-10T07:12:04.406Z,9
2023-05-10T07:13:07.803Z,9
2023-05-10T07:14:10.945Z,10
2023-05-10T07:15:14.233Z,10
2023-05-10T07:16:17.613Z,9
2023-05-10T07:17:20.947Z,9
2023-05-10T07:18:24.262Z,9
2023-05-10T07:19:27.519Z,9
2023-05-10T07:20:30.695Z,9
2023-05-10T07:21:33.980Z,9
2023-05-10T07:22:37.274Z,9
2023-05-10T07:23:39.652Z,9
2023-05-10T07:24:43.019Z,9
2023-05-10T07:25:46.178Z,9
2023-05-10T07:26:49.449Z,9
2023-05-10T07:27:52.865Z,9
2023-05-10T07:28:56.072Z,9
2023-05-10T07:29:59.419Z,9
2023-05-10T07:31:02.692Z,8
2023-05-10T07:32:05.907Z,8
2023-05-10T07:33:09.207Z,9
2023-05-10T07:34:12.649Z,9
2023-05-10T07:35:15.897Z,9
2023-05-10T07:36:19.090Z,8
2023-05-10T07:37:21.426Z,9
2023-05-10T07:38:24.677Z,8
2023-05-10T07:39:28.015Z,8
2023-05-10T07:40:31.339Z,8
2023-05-10T07:41:34.547Z,8
2023-05-10T07:42:38.024Z,8
2023-05-10T07:43:41.164Z,8
2023-05-10T07:44:44.433Z,8
2023-05-10T07:45:47.734Z,8
2023-05-10T07:46:51.017Z,9
2023-05-10T07:47:54.304Z,9
2023-05-10T07:48:57.663Z,9
2023-05-10T07:50:00.970Z,8
2023-05-10T07:51:03.211Z,9
2023-05-10T07:52:06.497Z,9
2023-05-10T07:53:09.798Z,8
2023-05-10T07:54:13.151Z,9
2023-05-10T07:55:16.382Z,9
2023-05-10T07:56:19.785Z,8
2023-05-10T07:57:22.955Z,-0.01
2023-05-10T07:58:26.275Z,8
2023-05-10T07:59:29.679Z,8
2023-05-10T08:00:32.832Z,8
2023-05-10T08:01:36.120Z,8
2023-05-10T08:02:39.421Z,8
2023-05-10T08:03:42.710Z,8
2023-05-10T08:04:45.006Z,8
2023-05-10T08:05:48.483Z,8
2023-05-10T08:06:51.602Z,8
2023-05-10T08:07:54.997Z,8
2023-05-10T08:08:58.286Z,8
2023-05-10T08:10:01.483Z,8
2023-05-10T08:11:03.847Z,8
2023-05-10T08:12:07.092Z,8
2023-05-10T08:13:10.393Z,8
2023-05-10T08:14:13.656Z,8
2023-05-10T08:15:16.975Z,8
2023-05-10T08:16:20.248Z,8
2023-05-10T08:17:23.557Z,8
2023-05-10T08:18:27.011Z,8
2023-05-10T08:19:30.327Z,8
2023-05-10T08:20:33.628Z,8
2023-05-10T08:21:36.836Z,8
2023-05-10T08:22:40.097Z,8
2023-05-10T08:23:43.307Z,8
2023-05-10T08:24:45.615Z,8
2023-05-10T08:25:48.957Z,8
2023-05-10T08:26:52.187Z,8
2023-05-10T08:27:55.632Z,8
2023-05-10T08:28:58.881Z,8
2023-05-10T08:30:02.154Z,8
2023-05-10T08:31:05.603Z,8
2023-05-10T08:32:08.804Z,8
2023-05-10T08:33:12.113Z,8
2023-05-10T08:34:15.379Z,8
2023-05-10T08:35:19.139Z,8
2023-05-10T08:36:22.337Z,8
2023-05-10T08:37:25.582Z,7
2023-05-10T08:38:27.929Z,7
2023-05-10T08:39:31.176Z,8
2023-05-10T08:40:34.378Z,7
2023-05-10T08:41:37.864Z,8
2023-05-10T08:42:41.097Z,7
2023-05-10T08:43:44.249Z,7
2023-05-10T08:44:47.619Z,7
2023-05-10T08:45:50.996Z,8
2023-05-10T08:46:54.289Z,8
2023-05-10T08:47:57.541Z,8
2023-05-10T08:49:00.683Z,8
2023-05-10T08:50:03.996Z,8
2023-05-10T08:51:07.446Z,8
2023-05-10T08:52:09.716Z,8
2023-05-10T08:53:12.886Z,8
2023-05-10T08:54:16.312Z,8
2023-05-10T08:55:19.454Z,8
2023-05-10T08:56:22.763Z,8
2023-05-10T08:57:26.106Z,8
2023-05-10T08:58:29.450Z,7
2023-05-10T08:59:32.720Z,8
2023-05-10T09:00:36.076Z,8
2023-05-10T09:01:39.329Z,8
2023-05-10T09:02:42.535Z,6
2023-05-10T09:03:45.790Z,8
2023-05-10T09:04:49.174Z,8
2023-05-10T09:05:51.398Z,8
2023-05-10T09:06:54.689Z,8
2023-05-10T09:07:58.009Z,8
2023-05-10T09:09:01.288Z,8
2023-05-10T09:10:04.563Z,8
2023-05-10T09:11:07.881Z,5
2023-05-10T09:12:11.196Z,9
2023-05-10T09:13:14.436Z,9
2023-05-10T09:14:17.883Z,8
2023-05-10T09:15:21.036Z,8
2023-05-10T09:16:24.405Z,9
2023-05-10T09:17:27.654Z,9
2023-05-10T09:18:30.888Z,9
2023-05-10T09:19:33.335Z,9
2023-05-10T09:20:36.504Z,9
2023-05-10T09:21:39.793Z,8
2023-05-10T09:22:43.089Z,9
2023-05-10T09:23:46.370Z,9
2023-05-10T09:24:49.670Z,9
2023-05-10T09:25:52.956Z,9
2023-05-10T09:26:56.263Z,9
2023-05-10T09:27:59.650Z,8
2023-05-10T09:29:02.871Z,9
2023-05-10T09:30:06.119Z,9
2023-05-10T09:31:09.449Z,9
2023-05-10T09:32:12.759Z,9
2023-05-10T09:33:15.012Z,8
2023-05-10T09:34:18.320Z,8
2023-05-10T09:35:21.593Z,8
2023-05-10T09:36:24.952Z,8
2023-05-10T09:37:28.184Z,8
2023-05-10T09:38:31.501Z,8
2023-05-10T09:39:34.767Z,8
2023-05-10T09:40:38.083Z,8
2023-05-10T09:41:41.330Z,8
2023-05-10T09:42:44.642Z,8
2023-05-10T09:43:47.964Z,8
2023-05-10T09:44:51.225Z,8
2023-05-10T09:45:54.507Z,8
2023-05-10T09:46:56.828Z,8
2023-05-10T09:48:00.177Z,8
2023-05-10T09:49:03.402Z,8
2023-05-10T09:50:06.700Z,8
2023-05-10T09:51:10.004Z,8
2023-05-10T09:52:13.310Z,8
2023-05-10T09:53:16.587Z,8
2023-05-10T09:54:19.872Z,8
2023-05-10T09:55:23.161Z,8
2023-05-10T09:56:26.453Z,8
2023-05-10T09:57:29.883Z,9
2023-05-10T09:58:33.087Z,8
2023-05-10T09:59:36.382Z,8
2023-05-10T10:00:38.629Z,8
2023-05-10T10:01:41.934Z,9
2023-05-10T10:02:45.220Z,8
2023-05-10T10:03:48.527Z,8
2023-05-10T10:04:51.863Z,8
2023-05-10T10:05:55.099Z,9
2023-05-10T10:06:58.384Z,7
2023-05-10T10:08:01.672Z,9
2023-05-10T10:09:05.002Z,8
2023-05-10T10:10:08.344Z,8
2023-05-10T10:11:11.611Z,8
2023-05-10T10:12:14.871Z,8
2023-05-10T10:13:18.163Z,9
2023-05-10T10:14:20.575Z,8
2023-05-10T10:15:23.820Z,7
2023-05-10T10:16:27.035Z,8
2023-05-10T10:17:30.335Z,9
2023-05-10T10:18:33.646Z,9
2023-05-10T10:19:36.921Z,8
2023-05-10T10:20:40.205Z,7
2023-05-10T10:21:43.503Z,8
2023-05-10T10:22:46.806Z,9
2023-05-10T10:23:50.083Z,9
2023-05-10T10:24:53.432Z,8
2023-05-10T10:25:56.680Z,8
2023-05-10T10:26:59.979Z,8
2023-05-10T10:28:02.275Z,8
2023-05-10T10:29:05.580Z,8
2023-05-10T10:30:08.863Z,8
2023-05-10T10:31:12.145Z,8
2023-05-10T10:32:15.544Z,8
2023-05-10T10:33:18.811Z,9
2023-05-10T10:34:22.117Z,8
2023-05-10T10:35:25.386Z,9
2023-05-10T10:36:28.709Z,8
2023-05-10T10:37:31.989Z,8
2023-05-10T10:38:35.194Z,8
2023-05-10T10:39:38.590Z,7
2023-05-10T10:40:41.817Z,8
2023-05-10T10:41:44.104Z,8
2023-05-10T10:42:47.384Z,8
2023-05-10T10:43:50.683Z,9
2023-05-10T10:44:54.068Z,8
2023-05-10T10:45:57.259Z,9
2023-05-10T10:47:00.541Z,9
2023-05-10T10:48:03.881Z,8
2023-05-10T10:49:07.122Z,8
2023-05-10T10:50:10.622Z,8
2023-05-10T10:51:13.820Z,8
2023-05-10T10:52:17.027Z,8
2023-05-10T10:53:20.425Z,8
2023-05-10T10:54:23.669Z,8
2023-05-10T10:55:25.949Z,8
2023-05-10T10:56:29.216Z,9
2023-05-10T10:57:32.476Z,8
2023-05-10T10:58:35.825Z,8
2023-05-10T10:59:39.057Z,8
2023-05-10T11:00:42.360Z,9
2023-05-10T11:01:45.649Z,9
2023-05-10T11:02:48.941Z,9
2023-05-10T11:03:52.219Z,8
2023-05-10T11:04:55.528Z,8
2023-05-10T11:05:58.945Z,9
2023-05-10T11:07:02.201Z,8
2023-05-10T11:08:05.411Z,8
2023-05-10T11:09:07.767Z,8
2023-05-10T11:10:11.202Z,8
2023-05-10T11:11:14.382Z,8
2023-05-10T11:12:17.591Z,9
2023-05-10T11:13:20.895Z,8
2023-05-10T11:14:24.217Z,9
2023-05-10T11:15:27.467Z,3
2023-05-10T11:16:30.813Z,9
2023-05-10T11:17:34.060Z,9
2023-05-10T11:18:37.371Z,8
2023-05-10T11:19:40.729Z,9
2023-05-10T11:20:44.004Z,8
2023-05-10T11:21:47.381Z,8
2023-05-10T11:22:49.533Z,8
2023-05-10T11:23:52.808Z,8
2023-05-10T11:24:56.093Z,8
2023-05-10T11:25:59.459Z,8
2023-05-10T11:27:02.722Z,8
2023-05-10T11:28:05.985Z,8
2023-05-10T11:29:09.294Z,9
2023-05-10T11:30:12.597Z,9
2023-05-10T11:31:15.884Z,8
2023-05-10T11:32:19.160Z,8
2023-05-10T11:33:22.593Z,8
2023-05-10T11:34:25.753Z,8
2023-05-10T11:35:29.033Z,7
2023-05-10T11:36:31.427Z,9
2023-05-10T11:37:34.652Z,10
2023-05-10T11:38:37.940Z,9
2023-05-10T11:39:41.229Z,9
2023-05-10T11:41:47.799Z,9
2023-05-10T11:42:50.140Z,10
2023-05-10T11:43:53.410Z,10
2023-05-10T11:44:56.722Z,9
2023-05-10T11:45:59.998Z,7
2023-05-10T11:47:03.286Z,8
2023-05-10T11:48:06.593Z,10
2023-05-10T11:49:09.985Z,9
2023-05-10T11:50:13.172Z,9
2023-05-10T11:51:16.456Z,9
2023-05-10T11:52:20.300Z,10
2023-05-10T11:53:23.581Z,10
2023-05-10T11:54:26.866Z,10
2023-05-10T11:55:30.164Z,9
2023-05-10T11:56:32.505Z,8
2023-05-10T11:57:35.814Z,9
2023-05-10T11:58:39.058Z,10
2023-05-10T11:59:42.348Z,9
2023-05-10T12:00:45.651Z,12
2023-05-10T12:01:48.955Z,12
2023-05-10T12:02:52.286Z,-0.01
2023-05-10T12:03:55.522Z,13
2023-05-10T12:04:58.827Z,-0.01
2023-05-10T12:06:02.113Z,13
2023-05-10T12:07:05.465Z,13
2023-05-10T12:08:08.710Z,13
2023-05-10T12:09:11.979Z,7
2023-05-10T12:10:14.289Z,13
2023-05-10T12:11:17.572Z,13
2023-05-10T12:12:20.895Z,6
2023-05-10T12:13:24.153Z,6
2023-05-10T12:14:27.454Z,6
2023-05-10T12:15:30.753Z,7
2023-05-10T12:16:34.054Z,6
2023-05-10T12:17:37.333Z,6
2023-05-10T12:18:40.646Z,7
2023-05-10T12:19:43.921Z,7
2023-05-10T12:20:47.223Z,7
2023-05-10T12:21:50.510Z,6
2023-05-10T12:22:53.796Z,7
2023-05-10T12:23:56.177Z,7
2023-05-10T12:24:59.394Z,7
2023-05-10T12:26:02.679Z,7
2023-05-10T12:27:05.980Z,7
2023-05-10T12:28:09.313Z,7
2023-05-10T12:29:12.567Z,7
2023-05-10T12:30:15.853Z,8
2023-05-10T12:31:19.166Z,7
2023-05-10T12:32:22.495Z,7
2023-05-10T12:33:25.733Z,8
2023-05-10T12:34:29.040Z,7
2023-05-10T12:35:32.317Z,8
2023-05-10T12:36:35.603Z,8
2023-05-10T12:37:37.919Z,8
2023-05-10T12:38:41.222Z,7
2023-05-10T12:39:44.505Z,8
2023-05-10T12:40:47.800Z,8
2023-05-10T12:41:51.108Z,8
2023-05-10T12:42:54.377Z,8
2023-05-10T12:43:57.675Z,8
2023-05-10T12:45:00.949Z,8
2023-05-10T12:46:04.235Z,9
2023-05-10T12:47:07.633Z,9
2023-05-10T12:48:10.855Z,8
2023-05-10T12:49:14.135Z,8
2023-05-10T12:50:17.588Z,9
2023-05-10T12:51:19.865Z,9
2023-05-10T12:52:23.078Z,9
2023-05-10T12:54:29.782Z,9
2023-05-10T12:55:32.954Z,9
2023-05-10T12:56:36.222Z,9
2023-05-10T12:57:39.567Z,9
2023-05-10T12:58:42.874Z,10
2023-05-10T12:59:46.300Z,9
2023-05-10T13:00:49.464Z,9
2023-05-10T13:01:52.696Z,10
2023-05-10T13:02:55.990Z,10
2023-05-10T13:03:59.312Z,9
2023-05-10T13:05:01.617Z,9
2023-05-10T13:06:04.890Z,10
2023-05-10T13:08:11.525Z,10
2023-05-10T13:09:14.793Z,10
2023-05-10T13:10:18.126Z,11
2023-05-10T13:11:21.359Z,10
2023-05-10T13:12:24.625Z,10
2023-05-10T13:13:27.968Z,11
2023-05-10T13:14:31.316Z,10
2023-05-10T13:15:34.517Z,11
2023-05-10T13:16:37.786Z,11
2023-05-10T13:17:41.191Z,10
2023-05-10T13:18:43.430Z,11
2023-05-10T13:19:46.711Z,11
2023-05-10T13:20:50.012Z,10
2023-05-10T13:21:53.277Z,11
2023-05-10T13:22:56.707Z,11
2023-05-10T13:23:59.884Z,6
2023-05-10T13:25:03.136Z,2
2023-05-10T13:26:06.436Z,7
2023-05-10T13:27:09.822Z,11
2023-05-10T13:28:13.036Z,11
2023-05-10T13:29:16.326Z,12
2023-05-10T13:30:19.620Z,11
2023-05-10T13:31:22.942Z,11
2023-05-10T13:32:25.221Z,11
2023-05-10T13:33:28.592Z,11
2023-05-10T13:34:31.796Z,11
2023-05-10T13:35:35.088Z,11
2023-05-10T13:36:38.402Z,11
2023-05-10T13:37:41.859Z,12
2023-05-10T13:38:44.945Z,12
2023-05-10T13:39:48.329Z,11
2023-05-10T13:40:51.547Z,11
2023-05-10T13:41:54.879Z,12
2023-05-10T13:42:58.152Z,12
2023-05-10T13:44:01.437Z,12
2023-05-10T13:45:04.702Z,12
2023-05-10T13:46:07.024Z,11
2023-05-10T13:47:10.309Z,11
2023-05-10T13:48:13.669Z,12
2023-05-10T13:49:16.966Z,12
2023-05-10T13:50:20.197Z,12
2023-05-10T13:51:24.029Z,12
2023-05-10T13:52:27.295Z,12
2023-05-10T13:53:30.561Z,12
2023-05-10T13:54:33.808Z,13
2023-05-10T13:55:37.085Z,12
2023-05-10T13:56:40.395Z,12
2023-05-10T13:57:43.662Z,12
2023-05-10T13:58:47.032Z,12
2023-05-10T13:59:49.264Z,12
2023-05-10T14:00:52.549Z,12
2023-05-10T14:01:55.886Z,13
2023-05-10T14:02:59.158Z,12
2023-05-10T14:04:02.435Z,13
2023-05-10T14:05:05.752Z,13
2023-05-10T14:06:09.088Z,12
2023-05-10T14:07:12.349Z,12
2023-05-10T14:08:15.592Z,12
2023-05-10T14:09:18.936Z,12
2023-05-10T14:10:22.181Z,12
2023-05-10T14:11:25.503Z,12
2023-05-10T14:12:28.783Z,13
2023-05-10T14:13:31.064Z,12
2023-05-10T14:14:34.373Z,13
2023-05-10T14:15:37.732Z,12
2023-05-10T14:16:41.110Z,12
2023-05-10T14:17:44.256Z,12
2023-05-10T14:18:47.590Z,13
2023-05-10T14:19:50.833Z,12
2023-05-10T14:20:54.168Z,13
2023-05-10T14:21:57.402Z,13
2023-05-10T14:23:00.756Z,13
2023-05-10T14:24:03.988Z,13
2023-05-10T14:25:07.400Z,13
2023-05-10T14:26:10.597Z,13
2023-05-10T14:27:13.011Z,13
2023-05-10T14:28:16.236Z,12
2023-05-10T14:29:19.458Z,13
2023-05-10T14:30:22.916Z,13
2023-05-10T14:31:26.070Z,12
2023-05-10T14:32:29.510Z,13
2023-05-10T14:33:32.643Z,13
2023-05-10T14:34:35.968Z,13
2023-05-10T14:35:39.235Z,13
2023-05-10T14:36:42.560Z,13
2023-05-10T14:37:45.855Z,13
2023-05-10T14:38:49.096Z,13
2023-05-10T14:39:52.425Z,13
2023-05-10T14:40:54.701Z,13
2023-05-10T14:41:58.002Z,13
2023-05-10T14:43:01.302Z,13
2023-05-10T14:45:07.888Z,12
2023-05-10T14:46:11.157Z,13
2023-05-10T14:47:14.444Z,12
2023-05-10T14:48:17.773Z,12
2023-05-10T14:49:21.237Z,12
2023-05-10T14:50:24.500Z,13
2023-05-10T14:51:27.849Z,13
2023-05-10T14:52:31.135Z,13
2023-05-10T14:53:34.386Z,13
2023-05-10T14:54:36.712Z,12
2023-05-10T14:55:39.984Z,13
2023-05-10T14:56:43.402Z,12
2023-05-10T14:57:46.680Z,12
2023-05-10T14:58:49.909Z,13
2023-05-10T14:59:53.191Z,13
2023-05-10T15:00:56.491Z,13
2023-05-10T15:01:59.763Z,12
2023-05-10T15:03:03.074Z,13
2023-05-10T15:04:06.340Z,13
2023-05-10T15:05:09.605Z,13
2023-05-10T15:06:13.030Z,12
2023-05-10T15:07:16.309Z,12
2023-05-10T15:08:18.551Z,13
2023-05-10T15:09:21.833Z,12
2023-05-10T15:10:25.118Z,12
2023-05-10T15:11:28.404Z,12
2023-05-10T15:12:31.689Z,12
2023-05-10T15:13:34.973Z,12
2023-05-10T15:14:37.305Z,4
2023-05-10T15:15:40.585Z,2
2023-05-10T15:16:43.934Z,6
2023-05-10T15:17:47.288Z,11
2023-05-10T15:18:50.487Z,12
2023-05-10T15:19:53.837Z,12
2023-05-10T15:20:57.142Z,11
2023-05-10T15:22:00.480Z,12
2023-05-10T15:23:03.755Z,12
2023-05-10T15:24:06.904Z,11
2023-05-10T15:25:10.254Z,11
2023-05-10T15:26:13.672Z,12
2023-05-10T15:27:16.859Z,11
2023-05-10T15:28:19.089Z,10
2023-05-10T15:29:22.530Z,2
2023-05-10T15:30:25.686Z,2
2023-05-10T15:31:28.990Z,1
2023-05-10T15:32:32.269Z,1